Time;durP1;ratioP1;P1;durP2;ratioP2;P2;SDS_P1;SDS_P2;PMS_P1;PMS_P2;Temp;Humidity;BMP_temperature;BMP_pressure;BME280_temperature;BME280_humidity;BME280_pressure;Samples;Min_cycle;Max_cycle;Signal;HPM_P1;HPM_P2
2022/03/26 00:00:16;;;;;;;32.47;18.00;;;;;;;3.16;79.62;103362.41;5076914;28;20036;-74
2022/03/26 00:02:43;;;;;;;33.88;17.90;;;;;;;3.14;79.84;103366.81;5095096;28;20028;-74
2022/03/26 00:05:09;;;;;;;32.03;17.20;;;;;;;3.11;79.74;103360.75;5095183;28;20054;-75
2022/03/26 00:07:35;;;;;;;40.45;18.83;;;;;;;3.09;79.55;103362.53;5094611;28;20107;-74
2022/03/26 00:10:00;;;;;;;31.05;17.88;;;;;;;3.07;79.63;103364.34;5077279;28;20420;-75
2022/03/26 00:12:26;;;;;;;39.15;19.48;;;;;;;3.05;79.71;103366.13;5094572;28;20391;-74
2022/03/26 00:14:51;;;;;;;41.97;18.40;;;;;;;3.02;79.85;103363.56;5094574;28;20491;-73
2022/03/26 00:17:17;;;;;;;30.17;17.45;;;;;;;2.98;80.04;103371.47;5094855;28;20430;-74
2022/03/26 00:19:42;;;;;;;30.98;17.10;;;;;;;2.95;80.00;103376.81;5094557;28;20357;-74
2022/03/26 00:22:08;;;;;;;33.13;18.33;;;;;;;2.92;80.25;103373.38;5094753;28;20032;-73
2022/03/26 00:24:33;;;;;;;35.75;18.58;;;;;;;2.90;80.96;103375.19;5094856;28;20447;-74
2022/03/26 00:26:58;;;;;;;35.80;18.38;;;;;;;2.86;80.97;103371.72;5094712;28;20036;-73
2022/03/26 00:29:24;;;;;;;31.80;17.20;;;;;;;2.82;81.18;103368.28;5094752;28;20107;-73
2022/03/26 00:31:49;;;;;;;36.03;18.67;;;;;;;2.80;81.17;103375.31;5042695;28;20491;-74
2022/03/26 00:34:15;;;;;;;33.65;18.10;;;;;;;2.76;81.30;103376.28;5094045;28;20028;-74
2022/03/26 00:36:40;;;;;;;33.70;18.30;;;;;;;2.73;81.29;103372.81;5076961;28;20040;-73
2022/03/26 00:39:06;;;;;;;33.35;18.50;;;;;;;2.69;81.14;103369.38;5076321;28;20032;-74
2022/03/26 00:41:32;;;;;;;36.85;18.52;;;;;;;2.65;81.25;103379.06;5094811;28;20428;-75
2022/03/26 00:43:58;;;;;;;34.22;17.58;;;;;;;2.62;81.45;103376.50;5094623;28;20066;-74
2022/03/26 00:46:24;;;;;;;34.28;18.38;;;;;;;2.60;81.50;103373.03;5093679;28;20028;-75
2022/03/26 00:48:49;;;;;;;34.13;18.50;;;;;;;2.58;81.60;103373.94;5094758;28;20028;-75
2022/03/26 00:51:15;;;;;;;32.50;17.67;;;;;;;2.56;82.08;103381.84;5093827;28;20032;-75
2022/03/26 00:53:45;;;;;;;36.63;18.80;;;;;;;2.55;82.13;103388.00;5094434;28;20028;-74
2022/03/26 00:56:12;;;;;;;36.03;20.45;;;;;;;2.54;82.22;103385.38;5075889;28;20067;-74
2022/03/26 00:58:38;;;;;;;34.13;18.30;;;;;;;2.50;82.68;103384.56;5093929;28;20047;-74
2022/03/26 01:01:03;;;;;;;31.83;18.25;;;;;;;2.49;82.63;103393.34;5094051;28;20032;-74
2022/03/26 01:03:29;;;;;;;44.33;19.60;;;;;;;2.47;82.62;103396.00;5093586;28;20396;-75
2022/03/26 01:05:54;;;;;;;38.25;18.83;;;;;;;2.45;82.99;103389.06;5094255;28;20078;-74
2022/03/26 01:08:19;;;;;;;38.58;19.45;;;;;;;2.44;82.86;103388.16;5075367;28;20476;-75
2022/03/26 01:10:46;;;;;;;35.38;19.58;;;;;;;2.43;83.07;103393.44;5093441;28;20060;-74
2022/03/26 01:13:13;;;;;;;31.45;18.40;;;;;;;2.42;83.09;103391.72;5093612;28;20493;-74
2022/03/26 01:15:39;;;;;;;36.65;18.98;;;;;;;2.39;83.24;103387.38;5093372;28;20032;-73
2022/03/26 01:18:04;;;;;;;38.72;19.15;;;;;;;2.39;83.33;103375.97;5094318;28;20391;-73
2022/03/26 01:20:30;;;;;;;37.75;19.30;;;;;;;2.39;83.45;103384.75;5093382;28;20036;-74
2022/03/26 01:22:56;;;;;;;38.05;20.45;;;;;;;2.40;83.31;103389.09;5094430;28;20441;-74
2022/03/26 01:25:24;;;;;;;38.08;19.20;;;;;;;2.39;83.38;103386.50;5093392;28;20040;-76
2022/03/26 01:27:50;;;;;;;33.53;19.42;;;;;;;2.38;83.21;103383.00;5076132;28;20035;-72
2022/03/26 01:30:15;;;;;;;37.97;19.70;;;;;;;2.38;83.50;103382.16;5093478;28;20480;-74
2022/03/26 01:32:43;;;;;;;44.20;22.10;;;;;;;2.36;83.33;103387.44;5093824;28;20067;-74
2022/03/26 01:35:09;;;;;;;36.85;19.30;;;;;;;2.33;83.29;103376.97;5093259;28;20024;-74
2022/03/26 01:37:34;;;;;;;47.50;21.55;;;;;;;2.32;83.43;103379.63;5093088;28;20066;-74
2022/03/26 01:40:00;;;;;;;40.85;21.20;;;;;;;2.30;83.61;103382.28;5092999;28;20033;-74
2022/03/26 01:42:25;;;;;;;40.08;21.95;;;;;;;2.28;83.62;103370.91;5074835;28;20047;-74
2022/03/26 01:44:51;;;;;;;40.88;21.13;;;;;;;2.27;83.77;103382.31;5074730;28;20028;-75
2022/03/26 01:47:17;;;;;;;43.20;20.48;;;;;;;2.25;83.85;103382.31;5093415;28;20040;-74
2022/03/26 01:49:43;;;;;;;39.95;21.30;;;;;;;2.24;83.94;103380.59;5074572;28;20028;-80
2022/03/26 01:52:10;;;;;;;37.17;20.85;;;;;;;2.24;84.15;103377.09;5091382;28;20131;-81
2022/03/26 01:54:39;;;;;;;40.97;21.92;;;;;;;2.22;84.20;103373.63;5091163;28;20032;-81
2022/03/26 01:57:05;;;;;;;38.17;21.70;;;;;;;2.21;84.32;103372.78;5090633;28;20055;-81
2022/03/26 01:59:31;;;;;;;39.78;21.40;;;;;;;2.20;84.47;103363.13;5090767;28;20065;-81
2022/03/26 02:01:56;;;;;;;47.08;22.55;;;;;;;2.20;84.40;103371.03;5090693;28;20421;-80
2022/03/26 02:04:22;;;;;;;44.05;21.80;;;;;;;2.18;84.95;103367.56;5090901;28;20194;-82
2022/03/26 02:06:48;;;;;;;44.92;23.17;;;;;;;2.16;85.06;103363.22;5090507;28;20024;-81
2022/03/26 02:09:15;;;;;;;43.25;21.67;;;;;;;2.14;84.84;103363.22;5091043;28;20422;-81
2022/03/26 02:11:43;;;;;;;47.03;20.80;;;;;;;2.09;84.75;103363.31;5090182;28;20119;-82
2022/03/26 02:14:11;;;;;;;41.42;22.10;;;;;;;2.08;84.96;103365.94;5072200;28;20051;-80
2022/03/26 02:16:39;;;;;;;39.33;21.33;;;;;;;2.05;85.15;103360.75;5090196;28;20094;-81
2022/03/26 02:19:06;;;;;;;45.92;21.73;;;;;;;2.04;85.04;103366.88;5090599;28;20058;-79
2022/03/26 02:21:34;;;;;;;44.17;22.10;;;;;;;2.01;85.17;103361.66;5071684;28;20178;-81
2022/03/26 02:24:00;;;;;;;41.13;22.50;;;;;;;1.99;85.18;103364.31;5090880;28;20095;-81
2022/03/26 02:26:26;;;;;;;43.00;22.00;;;;;;;1.98;85.30;103359.94;5091098;28;20096;-80
2022/03/26 02:28:52;;;;;;;44.28;22.20;;;;;;;1.96;85.46;103359.13;5091004;28;20113;-81
2022/03/26 02:31:18;;;;;;;42.08;22.05;;;;;;;1.94;85.31;103351.25;5090953;28;20028;-81
2022/03/26 02:33:44;;;;;;;42.88;21.85;;;;;;;1.93;85.63;103354.75;5091803;28;20024;-80
2022/03/26 02:36:10;;;;;;;45.78;22.52;;;;;;;1.91;86.02;103353.94;5090653;28;20032;-80
2022/03/26 02:38:37;;;;;;;43.70;22.30;;;;;;;1.90;85.69;103346.94;5090595;28;20086;-81
2022/03/26 02:41:04;;;;;;;42.05;22.45;;;;;;;1.90;85.80;103359.22;5090215;28;20035;-79
2022/03/26 02:43:29;;;;;;;45.75;21.55;;;;;;;1.89;85.85;103365.34;5090088;28;20083;-81
2022/03/26 02:45:55;;;;;;;41.30;22.15;;;;;;;1.87;85.95;103365.34;5090012;28;20096;-81
2022/03/26 02:48:21;;;;;;;41.53;22.50;;;;;;;1.85;85.92;103361.00;5055420;28;20050;-81
2022/03/26 02:50:46;;;;;;;41.90;22.58;;;;;;;1.84;86.29;103359.28;5071932;28;20108;-80
2022/03/26 02:53:12;;;;;;;47.25;22.42;;;;;;;1.83;86.41;103360.16;5071959;28;20245;-81
2022/03/26 02:55:39;;;;;;;44.35;22.20;;;;;;;1.80;86.19;103360.22;5074679;28;20447;-80
2022/03/26 02:58:07;;;;;;;41.20;21.65;;;;;;;1.76;86.25;103362.88;5094194;28;20028;-81
2022/03/26 03:00:32;;;;;;;43.35;22.25;;;;;;;1.74;86.71;103362.00;5093827;28;20039;-79
2022/03/26 03:02:58;;;;;;;40.85;21.63;;;;;;;1.71;86.43;103358.56;5075827;28;20032;-80
2022/03/26 03:05:25;;;;;;;40.00;22.27;;;;;;;1.69;86.77;103349.88;5094174;28;20044;-81
2022/03/26 03:07:50;;;;;;;43.88;22.20;;;;;;;1.67;86.63;103355.13;5094106;28;20082;-80
2022/03/26 03:10:17;;;;;;;43.25;22.05;;;;;;;1.66;86.76;103349.91;5075994;28;20040;-81
2022/03/26 03:12:47;;;;;;;43.30;22.15;;;;;;;1.64;86.76;103354.28;5094233;28;20413;-80
2022/03/26 03:15:13;;;;;;;41.35;22.40;;;;;;;1.62;86.57;103353.44;5094418;28;20177;-81
2022/03/26 03:17:41;;;;;;;45.30;23.33;;;;;;;1.60;86.55;103348.22;5076126;28;20036;-81
2022/03/26 03:20:09;;;;;;;44.90;22.63;;;;;;;1.58;86.71;103355.22;5075851;28;20032;-81
2022/03/26 03:22:35;;;;;;;49.45;22.70;;;;;;;1.55;86.79;103355.25;5093914;28;20061;-80
2022/03/26 03:25:01;;;;;;;46.78;22.80;;;;;;;1.53;86.93;103357.91;5094413;28;20044;-80
2022/03/26 03:27:26;;;;;;;49.80;23.35;;;;;;;1.52;86.88;103353.56;5093720;28;20063;-81
2022/03/26 03:29:52;;;;;;;48.60;24.27;;;;;;;1.50;87.22;103357.94;5058640;28;20032;-80
2022/03/26 03:32:18;;;;;;;42.88;22.75;;;;;;;1.50;87.18;103355.31;5093870;28;20032;-82
2022/03/26 03:34:43;;;;;;;42.33;23.60;;;;;;;1.50;87.18;103357.09;5093982;28;20084;-79
2022/03/26 03:37:09;;;;;;;46.47;23.33;;;;;;;1.49;87.22;103358.81;5058521;28;20028;-81
2022/03/26 03:39:34;;;;;;;42.92;22.90;;;;;;;1.48;86.86;103366.72;5075391;28;20435;-80
2022/03/26 03:42:00;;;;;;;47.28;23.58;;;;;;;1.46;87.10;103355.38;5075759;28;20047;-80
2022/03/26 03:44:25;;;;;;;45.40;23.77;;;;;;;1.44;87.27;103358.03;5093372;28;20028;-80
2022/03/26 03:46:51;;;;;;;50.05;24.77;;;;;;;1.42;87.09;103357.19;5075521;28;20425;-80
2022/03/26 03:49:17;;;;;;;51.90;24.88;;;;;;;1.41;87.20;103371.19;5093484;28;20040;-80
2022/03/26 03:51:43;;;;;;;56.40;24.90;;;;;;;1.39;87.29;103365.94;5094003;28;20086;-80
2022/03/26 03:54:08;;;;;;;56.15;24.92;;;;;;;1.39;87.50;103362.47;5093676;28;20405;-80
2022/03/26 03:56:34;;;;;;;60.35;26.10;;;;;;;1.39;87.89;103365.94;5060745;28;20126;-80
2022/03/26 03:59:00;;;;;;;47.65;26.17;;;;;;;1.40;87.83;103361.56;5096416;28;20507;-80
2022/03/26 04:01:25;;;;;;;54.25;25.58;;;;;;;1.39;87.85;103362.47;5094730;28;20087;-80
2022/03/26 04:03:51;;;;;;;53.95;27.27;;;;;;;1.40;87.92;103364.19;5059647;28;20073;-81
2022/03/26 04:06:16;;;;;;;51.15;26.00;;;;;;;1.39;87.93;103370.34;5091976;28;20405;-80
2022/03/26 04:08:42;;;;;;;57.80;26.40;;;;;;;1.37;87.83;103367.75;5093474;28;20110;-80
2022/03/26 04:11:07;;;;;;;54.25;27.15;;;;;;;1.36;87.62;103371.25;5076746;28;20096;-80
2022/03/26 04:13:33;;;;;;;57.92;27.23;;;;;;;1.35;88.01;103371.25;5094370;28;20081;-80
2022/03/26 04:15:58;;;;;;;56.92;28.23;;;;;;;1.34;88.00;103364.25;5074879;28;20032;-80
2022/03/26 04:18:24;;;;;;;56.80;28.17;;;;;;;1.32;88.00;103359.03;5092870;28;20127;-80
2022/03/26 04:20:51;;;;;;;58.47;27.42;;;;;;;1.31;88.01;103362.53;5092982;28;20028;-79
2022/03/26 04:23:18;;;;;;;64.55;28.30;;;;;;;1.30;87.98;103360.81;5092829;28;20429;-80
2022/03/26 04:25:44;;;;;;;60.05;30.65;;;;;;;1.30;87.95;103362.56;5093265;28;20321;-80
2022/03/26 04:28:09;;;;;;;61.75;29.08;;;;;;;1.28;88.26;103366.97;5093225;28;20043;-81
2022/03/26 04:30:35;;;;;;;71.20;31.90;;;;;;;1.25;88.21;103367.84;5092960;28;20063;-81
2022/03/26 04:33:00;;;;;;;69.03;30.58;;;;;;;1.23;88.35;103373.13;5074274;28;20369;-80
2022/03/26 04:35:26;;;;;;;62.58;30.90;;;;;;;1.22;88.46;103367.88;5092839;28;20036;-80
2022/03/26 04:37:55;;;;;;;65.15;30.08;;;;;;;1.21;88.75;103371.41;5092482;28;20032;-80
2022/03/26 04:40:20;;;;;;;69.20;31.13;;;;;;;1.19;88.58;103371.41;5074347;28;20403;-81
2022/03/26 04:42:46;;;;;;;67.43;32.17;;;;;;;1.19;88.68;103374.03;5092864;28;20047;-79
2022/03/26 04:45:11;;;;;;;71.15;33.33;;;;;;;1.19;88.84;103367.91;5092654;28;20106;-81
2022/03/26 04:47:38;;;;;;;73.03;32.67;;;;;;;1.18;89.07;103369.69;5074198;28;20146;-80
2022/03/26 04:50:04;;;;;;;79.68;34.65;;;;;;;1.19;89.00;103378.41;5092445;28;20028;-80
2022/03/26 04:52:30;;;;;;;76.75;34.47;;;;;;;1.19;89.38;103379.28;5073766;28;20064;-81
2022/03/26 04:54:56;;;;;;;81.13;35.00;;;;;;;1.20;89.34;103377.53;5092101;28;20153;-80
2022/03/26 04:57:21;;;;;;;76.90;34.25;;;;;;;1.19;89.29;103378.41;5074386;28;20035;-81
2022/03/26 04:59:46;;;;;;;85.03;36.55;;;;;;;1.18;89.52;103382.81;5074554;28;20302;-80
2022/03/26 05:02:13;;;;;;;76.32;35.53;;;;;;;1.18;89.59;103376.66;5092105;28;20409;-81
2022/03/26 05:04:39;;;;;;;77.85;35.70;;;;;;;1.16;89.69;103373.19;5092206;28;20024;-80
2022/03/26 05:07:45;;;;;;;83.07;36.42;;;;;;;1.16;89.99;103378.44;5092172;28;20428;-81
2022/03/26 05:09:50;;;;;;;85.03;35.60;;;;;;;1.15;90.13;103372.34;5092343;28;20044;-82
2022/03/26 05:12:17;;;;;;;70.40;33.58;;;;;;;1.13;90.49;103368.84;5091867;28;20036;-80
2022/03/26 05:14:42;;;;;;;76.60;34.20;;;;;;;1.13;90.36;103373.22;5092228;28;20130;-81
2022/03/26 05:17:07;;;;;;;81.47;36.22;;;;;;;1.12;90.10;103379.34;5091616;28;20074;-81
2022/03/26 05:19:33;;;;;;;78.70;36.17;;;;;;;1.11;89.92;103375.00;5092167;28;20036;-81
2022/03/26 05:21:58;;;;;;;78.15;36.13;;;;;;;1.10;89.94;103375.88;5094378;28;20100;-80
2022/03/26 05:24:23;;;;;;;79.03;35.95;;;;;;;1.10;89.97;103374.13;5056756;28;20039;-81
2022/03/26 05:26:49;;;;;;;89.72;38.22;;;;;;;1.12;89.82;103374.09;5092178;28;20035;-81
2022/03/26 05:29:14;;;;;;;111.10;44.15;;;;;;;1.13;90.01;103381.09;5056589;28;20032;-82
2022/03/26 05:31:40;;;;;;;90.05;40.83;;;;;;;1.13;90.61;103375.84;5091602;28;20440;-79
2022/03/26 05:34:05;;;;;;;90.20;38.25;;;;;;;1.12;90.18;103375.00;5056685;28;20032;-80
2022/03/26 05:36:30;;;;;;;93.47;39.28;;;;;;;1.12;90.04;103372.38;5091488;28;20112;-81
2022/03/26 05:38:56;;;;;;;88.80;39.70;;;;;;;1.13;90.31;103378.47;5073617;28;20036;-79
2022/03/26 05:41:23;;;;;;;88.57;40.30;;;;;;;1.13;90.72;103375.84;5091820;28;20429;-80
2022/03/26 05:43:49;;;;;;;89.55;40.47;;;;;;;1.15;90.88;103382.84;5074564;28;20032;-81
2022/03/26 05:46:14;;;;;;;94.55;40.47;;;;;;;1.17;91.14;103385.44;5095869;28;20053;-81
2022/03/26 05:48:39;;;;;;;99.93;41.78;;;;;;;1.19;91.47;103389.75;5075201;28;20104;-80
2022/03/26 05:51:05;;;;;;;115.53;48.05;;;;;;;1.22;91.76;103387.13;5093369;28;20484;-80
2022/03/26 05:53:30;;;;;;;125.85;51.47;;;;;;;1.27;92.82;103392.34;5075276;28;20465;-80
2022/03/26 05:55:56;;;;;;;130.80;49.97;;;;;;;1.32;93.29;103387.88;5075304;28;20082;-78
2022/03/26 05:58:21;;;;;;;110.97;47.95;;;;;;;1.37;93.59;103393.97;5093694;28;20067;-79
2022/03/26 06:00:49;;;;;;;113.15;46.80;;;;;;;1.41;93.72;103390.41;5091355;28;20337;-81
2022/03/26 06:03:16;;;;;;;130.10;48.50;;;;;;;1.46;94.18;103397.38;5072696;28;20403;-81
2022/03/26 06:05:41;;;;;;;136.70;52.78;;;;;;;1.52;94.34;103392.94;5092035;28;20114;-81
2022/03/26 06:08:08;;;;;;;126.70;48.38;;;;;;;1.58;94.86;103395.47;5091819;28;20409;-82
2022/03/26 06:10:34;;;;;;;110.95;47.35;;;;;;;1.65;95.06;103400.66;5073301;28;20028;-80
2022/03/26 06:13:00;;;;;;;110.53;46.90;;;;;;;1.68;95.34;103401.47;5091348;28;20097;-79
2022/03/26 06:15:25;;;;;;;117.85;49.38;;;;;;;1.74;95.06;103404.00;5091319;28;20055;-81
2022/03/26 06:17:51;;;;;;;109.50;45.47;;;;;;;1.81;95.04;103410.06;5073310;28;20044;-80
2022/03/26 06:20:16;;;;;;;109.88;44.03;;;;;;;1.87;95.15;103407.38;5072748;28;20039;-80
2022/03/26 06:22:41;;;;;;;105.90;44.08;;;;;;;1.96;95.16;103411.63;5091452;28;20032;-82
2022/03/26 06:25:07;;;;;;;101.38;44.75;;;;;;;2.05;95.50;103408.03;5073307;28;20044;-80
2022/03/26 06:27:33;;;;;;;111.70;44.85;;;;;;;2.15;95.79;103419.25;5091566;28;20071;-79
2022/03/26 06:29:58;;;;;;;114.90;46.10;;;;;;;2.27;96.03;103411.22;5093976;28;20094;-81
2022/03/26 06:32:24;;;;;;;126.50;49.80;;;;;;;2.39;96.28;103415.41;5095134;28;20359;-80
2022/03/26 06:34:50;;;;;;;128.43;50.92;;;;;;;2.51;96.73;103414.34;5095152;28;20036;-81
2022/03/26 06:37:16;;;;;;;118.60;48.17;;;;;;;2.61;97.04;103413.31;5095357;28;20440;-81
2022/03/26 06:39:41;;;;;;;132.10;53.03;;;;;;;2.72;96.89;103411.41;5077126;28;20032;-80
2022/03/26 06:42:07;;;;;;;133.02;51.83;;;;;;;2.85;97.43;103405.94;5095486;28;20455;-80
2022/03/26 06:44:32;;;;;;;126.28;51.22;;;;;;;2.97;97.72;103406.59;5095032;28;20491;-80
2022/03/26 06:46:58;;;;;;;132.48;51.38;;;;;;;3.10;97.87;103411.63;5094358;28;20028;-80
2022/03/26 06:49:23;;;;;;;133.75;52.13;;;;;;;3.24;97.90;103412.25;5076441;28;20043;-80
2022/03/26 06:51:49;;;;;;;124.93;51.67;;;;;;;3.38;98.00;103406.72;5076321;28;20059;-81
2022/03/26 06:54:15;;;;;;;132.35;53.67;;;;;;;3.54;98.04;103409.94;5094877;28;20491;-80
2022/03/26 06:56:40;;;;;;;117.60;49.72;;;;;;;3.68;98.20;103415.78;5094042;28;20114;-81
2022/03/26 06:59:06;;;;;;;124.85;50.55;;;;;;;3.85;98.24;103409.28;5094643;28;20066;-80
2022/03/26 07:01:32;;;;;;;118.53;49.72;;;;;;;4.03;98.22;103413.28;5094812;28;20482;-81
2022/03/26 07:03:58;;;;;;;123.20;51.08;;;;;;;4.24;98.50;103410.19;5094531;28;20063;-81
2022/03/26 07:06:23;;;;;;;122.00;52.13;;;;;;;4.44;98.88;103411.50;5094042;28;20404;-80
2022/03/26 07:08:49;;;;;;;127.20;53.33;;;;;;;4.63;99.09;103421.59;5094468;28;20060;-81
2022/03/26 07:11:15;;;;;;;119.53;51.78;;;;;;;4.83;99.04;103424.63;5093997;28;20118;-80
2022/03/26 07:13:41;;;;;;;123.80;53.28;;;;;;;5.09;99.64;103425.72;5075748;28;20414;-81
2022/03/26 07:16:07;;;;;;;122.15;53.25;;;;;;;5.28;99.50;103426.09;5095150;28;20131;-79
2022/03/26 07:18:34;;;;;;;125.45;53.92;;;;;;;5.45;98.81;103431.78;5094078;28;20039;-80
2022/03/26 07:21:00;;;;;;;118.80;54.10;;;;;;;5.63;97.91;103427.78;5076183;28;20031;-81
2022/03/26 07:23:27;;;;;;;113.00;49.85;;;;;;;5.81;95.94;103436.09;5093797;28;20079;-81
2022/03/26 07:25:52;;;;;;;111.85;52.42;;;;;;;6.00;94.41;103432.03;5093876;28;20027;-81
2022/03/26 07:28:18;;;;;;;113.13;52.05;;;;;;;6.19;92.72;103439.38;5075679;28;20032;-80
2022/03/26 07:30:43;;;;;;;99.15;49.03;;;;;;;6.41;91.59;103449.31;5093831;28;20032;-80
2022/03/26 07:33:09;;;;;;;98.45;48.22;;;;;;;6.59;90.10;103443.44;5094128;28;20447;-81
2022/03/26 07:35:35;;;;;;;93.65;47.50;;;;;;;6.78;88.82;103446.34;5093790;28;20036;-81
2022/03/26 07:38:00;;;;;;;93.78;48.28;;;;;;;6.98;87.25;103456.25;5094445;28;20043;-82
2022/03/26 07:40:26;;;;;;;95.05;47.40;;;;;;;7.18;86.19;103444.13;5093447;28;20065;-82
2022/03/26 07:42:51;;;;;;;98.45;48.03;;;;;;;7.36;84.94;103446.13;5093894;28;20071;-82
2022/03/26 07:45:17;;;;;;;99.65;47.30;;;;;;;7.56;84.03;103455.16;5059243;28;20440;-82
2022/03/26 07:47:42;;;;;;;102.25;47.63;;;;;;;7.79;82.83;103462.25;5093778;28;20053;-83
2022/03/26 07:50:08;;;;;;;89.40;45.72;;;;;;;7.97;82.14;103455.41;5093971;28;20370;-83
2022/03/26 07:52:35;;;;;;;97.57;46.55;;;;;;;8.21;81.12;103463.34;5094019;28;20069;-82
2022/03/26 07:55:00;;;;;;;94.05;45.80;;;;;;;8.42;79.35;103464.28;5093944;28;20036;-82
2022/03/26 07:57:27;;;;;;;85.07;44.15;;;;;;;8.64;78.32;103465.22;5093732;28;20032;-79
2022/03/26 07:59:53;;;;;;;94.57;45.85;;;;;;;8.95;77.16;103466.56;5075144;28;20058;-80
2022/03/26 08:02:18;;;;;;;87.80;42.97;;;;;;;9.37;75.68;103471.94;5093575;28;20024;-81
2022/03/26 08:04:45;;;;;;;76.40;42.00;;;;;;;9.85;73.34;103474.19;5093871;28;20405;-83
2022/03/26 08:07:11;;;;;;;81.00;43.13;;;;;;;10.52;71.06;103471.13;5093511;28;20437;-78
2022/03/26 08:09:36;;;;;;;76.00;40.22;;;;;;;11.16;67.64;103479.50;5094308;28;20146;-82
2022/03/26 08:12:03;;;;;;;68.00;38.60;;;;;;;11.73;63.94;103479.19;5094058;28;20077;-81
2022/03/26 08:14:30;;;;;;;77.70;39.05;;;;;;;12.24;62.65;103484.47;5093172;28;20048;-82
2022/03/26 08:16:56;;;;;;;65.50;34.58;;;;;;;12.72;59.20;103482.66;5094791;28;20091;-82
2022/03/26 08:19:22;;;;;;;64.18;33.53;;;;;;;12.84;57.29;103484.59;5093719;28;20409;-82
2022/03/26 08:21:47;;;;;;;65.97;32.47;;;;;;;12.82;54.74;103482.94;5093947;28;20063;-83
2022/03/26 08:24:13;;;;;;;62.72;34.63;;;;;;;12.87;56.17;103480.88;5093883;28;20063;-83
2022/03/26 08:26:39;;;;;;;67.07;34.13;;;;;;;12.74;57.43;103478.06;5094606;28;20032;-82
2022/03/26 08:29:05;;;;;;;71.18;34.45;;;;;;;12.61;56.32;103485.91;5093006;28;20032;-78
2022/03/26 08:31:31;;;;;;;68.35;34.50;;;;;;;12.49;56.15;103487.47;5093111;28;20076;-77
2022/03/26 08:33:57;;;;;;;62.75;34.45;;;;;;;12.66;57.77;103491.00;5075110;28;20028;-80
2022/03/26 08:36:24;;;;;;;59.75;33.10;;;;;;;12.83;55.67;103488.22;5093079;28;20032;-81
2022/03/26 08:38:50;;;;;;;65.03;32.97;;;;;;;12.99;55.69;103490.84;5094788;28;20039;-83
2022/03/26 08:41:19;;;;;;;60.20;32.65;;;;;;;13.21;54.94;103493.13;5095434;28;20036;-84
2022/03/26 08:43:45;;;;;;;61.22;34.55;;;;;;;13.67;54.18;103496.66;5096362;28;20103;-79
2022/03/26 08:46:10;;;;;;;62.25;34.83;;;;;;;14.05;51.76;103494.25;5095279;28;20059;-76
2022/03/26 08:48:36;;;;;;;64.20;36.35;;;;;;;14.68;51.49;103493.84;5092597;28;20455;-79
2022/03/26 08:51:03;;;;;;;63.00;36.88;;;;;;;15.23;48.46;103487.44;5092327;28;20131;-79
2022/03/26 08:53:28;;;;;;;65.70;35.35;;;;;;;16.03;46.76;103491.72;5091789;28;20020;-80
2022/03/26 08:55:54;;;;;;;59.70;34.90;;;;;;;16.55;45.12;103485.22;5074028;28;20093;-81
2022/03/26 08:58:19;;;;;;;66.60;35.65;;;;;;;17.62;42.22;103483.38;5092330;28;20511;-79
2022/03/26 09:00:47;;;;;;;62.25;31.33;;;;;;;18.54;39.74;103484.13;5091842;28;20345;-78
2022/03/26 09:03:14;;;;;;;51.65;27.75;;;;;;;18.82;38.14;103493.47;5092797;28;20088;-77
2022/03/26 09:05:39;;;;;;;50.50;28.90;;;;;;;19.47;36.42;103493.38;5092681;28;20046;-79
2022/03/26 09:08:05;;;;;;;46.63;27.58;;;;;;;20.26;34.29;103482.75;5092362;28;20047;-80
2022/03/26 09:10:30;;;;;;;54.42;31.30;;;;;;;20.74;34.17;103485.66;5073776;28;20145;-78
2022/03/26 09:12:56;;;;;;;46.88;26.30;;;;;;;21.13;33.03;103482.91;5090982;28;20032;-78
2022/03/26 09:15:21;;;;;;;50.45;28.02;;;;;;;21.82;31.74;103484.41;5091165;28;20044;-79
2022/03/26 09:17:47;;;;;;;43.22;26.92;;;;;;;22.28;31.58;103489.03;5091538;28;20032;-79
2022/03/26 09:20:12;;;;;;;44.05;26.67;;;;;;;23.32;29.19;103491.16;5090966;28;20052;-79
2022/03/26 09:22:38;;;;;;;40.80;25.52;;;;;;;23.38;29.48;103495.13;5091427;28;20054;-81
2022/03/26 09:25:04;;;;;;;38.63;24.63;;;;;;;23.51;28.40;103495.53;5072636;28;20032;-79
2022/03/26 09:27:30;;;;;;;44.78;25.42;;;;;;;23.38;28.93;103495.13;5090582;28;20508;-76
2022/03/26 09:29:56;;;;;;;40.17;20.98;;;;;;;23.17;29.01;103496.34;5072432;28;20052;-80
2022/03/26 09:32:22;;;;;;;35.13;20.60;;;;;;;23.53;28.43;103495.38;5091260;28;20072;-77
2022/03/26 09:34:48;;;;;;;33.00;19.30;;;;;;;23.28;28.47;103495.22;5090477;28;20112;-79
2022/03/26 09:37:14;;;;;;;35.88;21.88;;;;;;;23.89;27.64;103498.78;5090917;28;20137;-81
2022/03/26 09:39:39;;;;;;;36.42;21.30;;;;;;;23.78;28.39;103490.88;5090775;28;20031;-79
2022/03/26 09:42:07;;;;;;;37.63;23.85;;;;;;;24.01;27.73;103490.34;5090753;28;20498;-80
2022/03/26 09:44:33;;;;;;;31.52;21.20;;;;;;;24.46;27.06;103486.38;5091005;28;20032;-80
2022/03/26 09:46:58;;;;;;;35.72;21.85;;;;;;;23.90;27.52;103488.75;5091344;28;20047;-80
2022/03/26 09:49:24;;;;;;;36.97;20.80;;;;;;;24.31;27.06;103490.78;5091135;28;20024;-79
2022/03/26 09:51:54;;;;;;;33.45;20.33;;;;;;;23.95;27.39;103489.13;5090754;28;20049;-77
2022/03/26 09:54:21;;;;;;;34.95;18.45;;;;;;;24.13;27.27;103497.19;5091535;28;20032;-80
2022/03/26 09:56:46;;;;;;;34.17;19.70;;;;;;;24.55;25.93;103498.13;5090741;28;20048;-79
2022/03/26 09:59:11;;;;;;;29.88;19.10;;;;;;;24.55;26.83;103501.69;5090815;28;20025;-80
2022/03/26 10:01:37;;;;;;;33.15;17.67;;;;;;;24.30;27.34;103498.06;5090680;28;20079;-79
2022/03/26 10:04:20;;;;;;;33.63;19.15;;;;;;;23.80;27.52;103502.47;5070826;28;20044;-81
2022/03/26 10:06:51;;;;;;;29.95;17.55;;;;;;;24.02;26.91;103498.34;5090082;28;20024;-78
2022/03/26 10:09:26;;;;;;;;;;;;;;;24.28;27.53;103490.06;5072913;28;20054;-80
2022/03/26 10:12:00;;;;;;;28.38;17.02;;;;;;;24.43;27.44;103492.16;5072337;28;19912;-76
2022/03/26 10:14:55;;;;;;;24.55;15.15;;;;;;;24.23;27.18;103492.44;5089671;28;20444;-76
2022/03/26 10:17:33;;;;;;;26.35;14.13;;;;;;;25.03;26.60;103490.16;5090474;28;20067;-80
2022/03/26 10:20:01;;;;;;;25.30;16.42;;;;;;;25.10;25.61;103488.44;5090540;28;20412;-81
2022/03/26 10:22:30;;;;;;;40.20;17.75;;;;;;;25.00;26.54;103485.88;5090519;28;20024;-75
2022/03/26 10:24:58;;;;;;;31.02;18.23;;;;;;;24.98;24.23;103479.78;5089507;28;20040;-81
2022/03/26 10:27:23;;;;;;;39.42;18.88;;;;;;;24.59;25.51;103478.59;5090020;28;20062;-79
2022/03/26 10:29:59;;;;;;;29.50;16.83;;;;;;;25.06;25.86;103481.63;5090137;28;20035;-79
2022/03/26 10:32:46;;;;;;;39.92;21.20;;;;;;;25.20;25.23;103474.63;5089488;28;20488;-77
2022/03/26 10:35:19;;;;;;;40.78;22.58;;;;;;;25.02;24.93;103478.41;5071825;28;20032;-78
2022/03/26 10:37:48;;;;;;;47.58;24.30;;;;;;;25.06;25.85;103474.31;5089945;28;20032;-80
2022/03/26 10:40:27;;;;;;;46.47;26.48;;;;;;;25.17;25.41;103468.50;5090130;28;20048;-79
2022/03/26 10:43:13;;;;;;;50.17;29.38;;;;;;;25.36;25.64;103469.16;5090083;28;20120;-80
2022/03/26 10:45:50;;;;;;;53.08;30.15;;;;;;;25.69;24.72;103469.03;5090364;28;20028;-80
2022/03/26 10:48:22;;;;;;;53.08;28.90;;;;;;;26.41;24.36;103470.72;5090179;28;20047;-79
2022/03/26 10:50:54;;;;;;;52.17;33.97;;;;;;;26.21;23.72;103463.03;5089922;28;20123;-80
2022/03/26 10:53:20;;;;;;;56.75;33.80;;;;;;;25.84;24.47;103459.13;5090145;28;20113;-81
2022/03/26 10:55:48;;;;;;;55.30;34.05;;;;;;;25.60;24.79;103467.38;5089625;28;20036;-82
2022/03/26 10:58:14;;;;;;;53.60;33.35;;;;;;;25.48;25.05;103467.78;5089447;28;20032;-79
2022/03/26 11:00:42;;;;;;;54.45;33.10;;;;;;;25.75;23.83;103462.91;5090123;28;20037;-83
2022/03/26 11:03:08;;;;;;;56.85;33.75;;;;;;;24.76;25.66;103468.53;5090093;28;20024;-80
2022/03/26 11:05:34;;;;;;;55.70;33.17;;;;;;;25.14;25.77;103455.25;5071529;28;20039;-81
2022/03/26 11:08:01;;;;;;;57.97;34.35;;;;;;;25.51;25.82;103458.38;5089473;28;20413;-88
2022/03/26 11:10:30;;;;;;;59.83;35.20;;;;;;;26.00;24.80;103454.63;5090133;28;20425;-87